createdAt,value
2018-04-12T00:00:03.606Z,9.80
2018-04-12T00:02:31.887Z,6.73
2018-04-12T00:05:00.153Z,9.03
2018-04-12T00:07:28.441Z,9.17
2018-04-12T00:09:56.711Z,7.83
2018-04-12T00:12:24.977Z,6.30
2018-04-12T00:14:53.253Z,8.40
2018-04-12T00:17:21.521Z,7.90
2018-04-12T00:19:49.810Z,6.77
2018-04-12T00:22:18.074Z,9.97
2018-04-12T00:24:46.345Z,7.23
2018-04-12T00:27:14.625Z,6.50
2018-04-12T00:29:42.890Z,8.27
2018-04-12T00:32:11.178Z,9.07
2018-04-12T00:34:39.454Z,7.93
2018-04-12T00:37:07.729Z,7.70
2018-04-12T00:39:36.006Z,8.23
2018-04-12T00:42:04.289Z,6.90
2018-04-12T00:44:32.574Z,7.13
2018-04-12T00:47:00.845Z,6.73
2018-04-12T00:49:29.116Z,7.73
2018-04-12T00:51:57.393Z,7.47
2018-04-12T00:54:25.663Z,6.10
2018-04-12T00:56:53.945Z,8.90
2018-04-12T00:59:22.217Z,7.03
2018-04-12T01:01:50.486Z,6.93
2018-04-12T01:04:18.761Z,7.70
2018-04-12T01:06:47.025Z,6.20
2018-04-12T01:09:15.309Z,8.10
2018-04-12T01:11:43.577Z,7.27
2018-04-12T01:14:11.857Z,6.27
2018-04-12T01:16:40.142Z,6.90
2018-04-12T01:19:08.425Z,7.83
2018-04-12T01:21:36.730Z,7.00
2018-04-12T01:24:04.981Z,8.17
2018-04-12T01:26:33.238Z,5.93
2018-04-12T01:29:01.509Z,9.27
2018-04-12T01:31:29.781Z,6.77
2018-04-12T01:33:58.061Z,9.60
2018-04-12T01:36:26.333Z,6.37
2018-04-12T01:38:54.601Z,6.00
2018-04-12T01:41:22.874Z,8.50
2018-04-12T01:43:51.142Z,10.67
2018-04-12T01:46:19.429Z,7.00
2018-04-12T01:48:47.702Z,7.23
2018-04-12T01:51:15.961Z,7.63
2018-04-12T01:53:44.246Z,10.93
2018-04-12T01:56:13.429Z,7.77
2018-04-12T02:01:38.915Z,9.53
2018-04-12T02:04:07.179Z,7.73
2018-04-12T02:06:35.467Z,9.80
2018-04-12T02:09:03.739Z,9.73
2018-04-12T02:11:32.016Z,11.83
2018-04-12T02:14:00.302Z,9.03
2018-04-12T02:16:28.576Z,7.37
2018-04-12T02:18:56.876Z,11.43
2018-04-12T02:21:25.146Z,7.70
2018-04-12T02:23:53.422Z,9.70
2018-04-12T02:26:21.704Z,8.60
2018-04-12T02:28:50.089Z,9.23
2018-04-12T02:31:18.364Z,9.33
2018-04-12T02:33:46.657Z,10.77
2018-04-12T02:36:14.932Z,9.40
2018-04-12T02:38:43.214Z,11.57
2018-04-12T02:41:11.500Z,11.27
2018-04-12T02:43:39.815Z,11.07
2018-04-12T02:46:08.093Z,10.80
2018-04-12T02:48:36.366Z,11.63
2018-04-12T02:51:04.658Z,8.77
2018-04-12T02:53:32.935Z,10.93
2018-04-12T02:56:01.267Z,9.60
2018-04-12T02:58:29.534Z,10.57
2018-04-12T03:00:57.814Z,12.03
2018-04-12T03:03:26.102Z,12.43
2018-04-12T03:05:54.386Z,13.17
2018-04-12T03:08:22.679Z,9.90
2018-04-12T03:10:50.946Z,9.23
2018-04-12T03:13:19.219Z,10.47
2018-04-12T03:15:47.503Z,9.17
2018-04-12T03:18:15.778Z,13.77
2018-04-12T03:20:44.079Z,13.17
2018-04-12T03:23:12.350Z,19.20
2018-04-12T03:25:40.626Z,11.40
2018-04-12T03:28:08.919Z,16.17
2018-04-12T03:30:37.219Z,13.97
2018-04-12T03:33:05.494Z,17.73
2018-04-12T03:35:33.771Z,10.37
2018-04-12T03:38:02.049Z,12.53
2018-04-12T03:40:30.342Z,13.63
2018-04-12T03:42:58.618Z,12.10
2018-04-12T03:45:26.914Z,14.40
2018-04-12T03:47:55.190Z,13.40
2018-04-12T03:50:23.530Z,14.03
2018-04-12T03:52:51.758Z,10.67
2018-04-12T03:55:20.040Z,10.87
2018-04-12T03:57:48.325Z,16.13
2018-04-12T04:00:16.602Z,10.30
2018-04-12T04:02:44.874Z,9.23
2018-04-12T04:05:13.151Z,9.30
2018-04-12T04:07:41.535Z,9.50
2018-04-12T04:10:09.823Z,9.83
2018-04-12T04:12:38.098Z,14.63
2018-04-12T04:15:18.058Z,9.60
2018-04-12T04:17:57.915Z,10.53
2018-04-12T04:20:37.914Z,10.03
2018-04-12T04:23:06.206Z,12.10
2018-04-12T04:25:34.480Z,8.63
2018-04-12T04:28:02.759Z,12.43
2018-04-12T04:30:31.036Z,13.70
2018-04-12T04:32:59.327Z,13.97
2018-04-12T04:35:27.603Z,12.13
2018-04-12T04:37:55.883Z,11.00
2018-04-12T04:40:24.166Z,9.90
2018-04-12T04:42:52.435Z,10.90
2018-04-12T04:45:20.763Z,10.63
2018-04-12T04:47:49.011Z,11.37
2018-04-12T04:50:17.289Z,11.50
2018-04-12T04:52:45.566Z,9.77
2018-04-12T04:55:13.847Z,14.00
2018-04-12T04:57:42.170Z,11.50
2018-04-12T05:00:10.474Z,11.10
2018-04-12T05:02:38.725Z,13.43
2018-04-12T05:05:07.010Z,11.83
2018-04-12T05:07:35.281Z,12.90
2018-04-12T05:10:03.579Z,9.47
2018-04-12T05:12:31.854Z,12.90
2018-04-12T05:15:00.138Z,10.97
2018-04-12T05:17:28.416Z,12.70
2018-04-12T05:19:56.694Z,12.03
2018-04-12T05:22:25.019Z,13.03
2018-04-12T05:24:53.294Z,10.53
2018-04-12T05:27:21.575Z,12.67
2018-04-12T05:29:49.862Z,12.07
2018-04-12T05:32:18.139Z,12.30
2018-04-12T05:34:46.426Z,9.70
2018-04-12T05:37:14.702Z,13.20
2018-04-12T05:39:42.995Z,12.20
2018-04-12T05:42:11.294Z,14.63
2018-04-12T05:44:39.575Z,14.57
2018-04-12T05:47:07.848Z,12.50
2018-04-12T05:49:36.139Z,10.77
2018-04-12T05:52:04.419Z,15.27
2018-04-12T05:54:32.691Z,11.53
2018-04-12T05:57:00.991Z,13.70
2018-04-12T05:59:29.266Z,12.07
2018-04-12T06:01:57.542Z,10.77
2018-04-12T06:04:25.844Z,13.90
2018-04-12T06:06:54.125Z,16.40
2018-04-12T06:09:22.398Z,12.80
2018-04-12T06:11:50.696Z,12.53
2018-04-12T06:14:18.975Z,12.37
2018-04-12T06:16:47.259Z,15.07
2018-04-12T06:19:15.550Z,12.43
2018-04-12T06:21:43.862Z,12.60
2018-04-12T06:24:12.139Z,12.30
2018-04-12T06:26:40.434Z,10.90
2018-04-12T06:29:08.706Z,9.80
2018-04-12T06:31:36.986Z,10.27
2018-04-12T06:34:05.281Z,14.80
2018-04-12T06:36:33.556Z,14.33
2018-04-12T06:39:01.835Z,14.77
2018-04-12T06:41:30.127Z,10.90
2018-04-12T06:43:58.410Z,12.73
2018-04-12T06:46:26.691Z,12.33
2018-04-12T06:48:54.981Z,17.97
2018-04-12T06:51:23.266Z,12.87
2018-04-12T06:53:51.545Z,13.47
2018-04-12T06:56:19.835Z,12.93
2018-04-12T06:58:48.112Z,14.47
2018-04-12T07:01:16.388Z,11.70
2018-04-12T07:03:44.686Z,14.53
2018-04-12T07:06:12.996Z,14.50
2018-04-12T07:08:41.243Z,19.77
2018-04-12T07:11:09.543Z,18.07
2018-04-12T07:13:37.819Z,16.30
2018-04-12T07:16:06.090Z,20.20
2018-04-12T07:18:34.382Z,18.57
2018-04-12T07:21:02.658Z,16.23
2018-04-12T07:23:30.934Z,14.20
2018-04-12T07:25:59.251Z,16.10
2018-04-12T07:28:27.526Z,17.10
2018-04-12T07:30:55.811Z,16.17
2018-04-12T07:33:24.126Z,19.07
2018-04-12T07:35:52.410Z,12.90
2018-04-12T07:38:20.690Z,18.33
2018-04-12T07:40:49.003Z,18.23
2018-04-12T07:43:17.278Z,18.60
2018-04-12T07:45:45.575Z,18.20
2018-04-12T07:48:13.885Z,18.30
2018-04-12T07:50:42.168Z,18.00
2018-04-12T07:53:10.439Z,19.17
2018-04-12T07:55:39.011Z,21.73
2018-04-12T07:58:07.286Z,19.07
2018-04-12T08:00:35.563Z,18.70
2018-04-12T08:03:03.854Z,17.93
2018-04-12T08:05:32.147Z,18.07
2018-04-12T08:08:00.476Z,17.47
2018-04-12T08:10:28.711Z,15.43
2018-04-12T08:12:56.981Z,19.77
2018-04-12T08:15:25.255Z,17.97
2018-04-12T08:17:53.558Z,20.33
2018-04-12T08:20:21.862Z,19.17
2018-04-12T08:22:50.143Z,19.87
2018-04-12T08:25:18.459Z,20.53
2018-04-12T08:27:46.746Z,20.57
2018-04-12T08:30:15.034Z,21.90
2018-04-12T08:32:43.318Z,23.43
2018-04-12T08:35:11.591Z,19.43
2018-04-12T08:37:39.898Z,20.57
2018-04-12T08:40:08.196Z,23.27
2018-04-12T08:42:36.476Z,21.57
2018-04-12T08:45:04.743Z,23.13
2018-04-12T08:47:33.040Z,21.23
2018-04-12T08:50:01.310Z,22.97
2018-04-12T08:52:29.594Z,24.10
2018-04-12T08:54:57.882Z,26.83
2018-04-12T08:57:26.166Z,26.73
2018-04-12T08:59:54.455Z,27.87
2018-04-12T09:02:22.735Z,25.63
2018-04-12T09:04:51.025Z,28.33
2018-04-12T09:07:19.298Z,27.50
2018-04-12T09:09:47.590Z,26.77
2018-04-12T09:12:15.873Z,27.57
2018-04-12T09:14:44.154Z,26.50
2018-04-12T09:17:12.426Z,30.00
2018-04-12T09:19:40.720Z,29.33
2018-04-12T09:22:08.996Z,27.63
2018-04-12T09:24:37.287Z,25.60
2018-04-12T09:27:05.568Z,26.90
2018-04-12T09:29:33.851Z,26.87
2018-04-12T09:32:02.153Z,25.80
2018-04-12T09:34:30.414Z,27.07
2018-04-12T09:36:58.707Z,26.87
2018-04-12T09:39:27.035Z,28.93
2018-04-12T09:41:55.330Z,29.63
2018-04-12T09:44:23.607Z,28.83
2018-04-12T09:46:51.894Z,27.30
2018-04-12T09:49:20.197Z,25.70
2018-04-12T09:51:48.483Z,26.40
2018-04-12T09:54:16.746Z,27.93
2018-04-12T09:56:45.047Z,25.87
2018-04-12T09:59:13.315Z,24.97
2018-04-12T10:01:47.160Z,25.50
2018-04-12T10:04:16.234Z,27.00
2018-04-12T10:06:50.009Z,27.73
2018-04-12T10:09:18.289Z,27.73
2018-04-12T10:11:46.558Z,27.93
2018-04-12T10:14:15.692Z,28.43
2018-04-12T10:16:43.957Z,28.40
2018-04-12T10:19:12.262Z,27.57
2018-04-12T10:21:40.595Z,27.57
2018-04-12T10:24:08.834Z,27.47
2018-04-12T10:26:37.110Z,27.37
2018-04-12T10:29:05.402Z,28.93
2018-04-12T10:31:33.675Z,29.00
2018-04-12T10:34:01.962Z,29.37
2018-04-12T10:36:30.241Z,26.77
2018-04-12T10:38:58.523Z,26.43
2018-04-12T10:41:26.802Z,27.93
2018-04-12T10:43:55.099Z,29.53
2018-04-12T10:46:23.391Z,28.93
2018-04-12T10:48:51.953Z,29.20
2018-04-12T10:51:20.236Z,26.27
2018-04-12T10:53:48.515Z,32.33
2018-04-12T10:56:16.806Z,30.27
2018-04-12T10:58:45.287Z,27.33
2018-04-12T11:01:13.664Z,31.10
2018-04-12T11:03:41.963Z,26.80
2018-04-12T11:06:10.491Z,23.53
2018-04-12T11:08:38.801Z,28.33
2018-04-12T11:11:07.095Z,25.40
2018-04-12T11:13:35.850Z,27.20
2018-04-12T11:16:04.170Z,26.87
2018-04-12T11:18:32.619Z,28.37
2018-04-12T11:21:00.855Z,25.03
2018-04-12T11:23:29.289Z,29.03
2018-04-12T11:25:57.665Z,25.80
2018-04-12T11:28:26.163Z,27.90
2018-04-12T11:30:54.844Z,28.20
2018-04-12T11:33:23.558Z,26.80
2018-04-12T11:35:51.923Z,28.57
2018-04-12T11:38:20.202Z,27.47
2018-04-12T11:40:48.479Z,26.47
2018-04-12T11:43:16.769Z,26.50
2018-04-12T11:45:45.075Z,27.27
2018-04-12T11:48:13.370Z,27.03
2018-04-12T11:50:41.654Z,28.00
2018-04-12T11:53:09.948Z,27.97
2018-04-12T11:55:38.258Z,24.17
2018-04-12T11:58:06.522Z,26.43
2018-04-12T12:00:34.804Z,25.93
2018-04-12T12:03:03.115Z,26.43
2018-04-12T12:05:31.546Z,26.03
2018-04-12T12:07:59.869Z,22.50
2018-04-12T12:10:28.166Z,22.57
2018-04-12T12:12:56.439Z,24.77
2018-04-12T12:15:24.719Z,26.97
2018-04-12T12:17:53.019Z,24.13
2018-04-12T12:20:21.291Z,19.73
2018-04-12T12:22:49.604Z,24.23
2018-04-12T12:28:14.598Z,21.70
2018-04-12T12:30:42.882Z,18.77
2018-04-12T12:33:11.164Z,17.10
2018-04-12T12:35:39.446Z,18.77
2018-04-12T12:38:07.736Z,17.63
2018-04-12T12:40:36.023Z,16.20
2018-04-12T12:43:04.310Z,19.07
2018-04-12T12:45:32.605Z,18.80
2018-04-12T12:48:00.881Z,18.47
2018-04-12T12:50:29.155Z,18.40
2018-04-12T12:52:57.439Z,15.80
2018-04-12T12:55:25.718Z,16.27
2018-04-12T12:57:54.008Z,16.50
2018-04-12T13:00:22.292Z,16.23
2018-04-12T13:02:51.629Z,16.17
2018-04-12T13:05:19.914Z,16.70
2018-04-12T13:07:48.205Z,17.50
2018-04-12T13:10:16.482Z,16.57
2018-04-12T13:12:45.674Z,18.57
2018-04-12T13:15:13.966Z,17.57
2018-04-12T13:17:42.238Z,16.03
2018-04-12T13:20:10.524Z,16.30
2018-04-12T13:22:38.809Z,16.13
2018-04-12T13:25:07.106Z,16.90
2018-04-12T13:27:35.377Z,15.83
2018-04-12T13:30:03.650Z,16.03
2018-04-12T13:32:31.941Z,17.37
2018-04-12T13:35:00.225Z,16.40
2018-04-12T13:37:28.503Z,15.17
2018-04-12T13:39:56.786Z,15.10
2018-04-12T13:42:25.110Z,15.57
2018-04-12T13:44:53.350Z,15.33
2018-04-12T13:47:21.641Z,15.63
2018-04-12T13:49:49.926Z,14.67
2018-04-12T13:52:18.199Z,16.07
2018-04-12T13:54:46.502Z,14.60
2018-04-12T13:57:14.776Z,14.50
2018-04-12T13:59:43.054Z,14.37
2018-04-12T14:02:11.336Z,13.20
2018-04-12T14:04:39.623Z,13.17
2018-04-12T14:07:07.891Z,14.60
2018-04-12T14:09:36.186Z,14.60
2018-04-12T14:12:04.470Z,14.10
2018-04-12T14:14:32.754Z,13.77
2018-04-12T14:17:01.047Z,12.10
2018-04-12T14:19:29.319Z,10.87
2018-04-12T14:21:57.610Z,12.03
2018-04-12T14:24:25.903Z,11.60
2018-04-12T14:26:54.189Z,10.90
2018-04-12T14:29:22.466Z,10.27
2018-04-12T14:31:50.735Z,12.40
2018-04-12T14:34:19.022Z,11.23
2018-04-12T14:36:47.295Z,10.30
2018-04-12T14:39:15.587Z,11.37
2018-04-12T14:41:43.884Z,11.60
2018-04-12T14:44:12.176Z,12.57
2018-04-12T14:46:40.450Z,11.73
2018-04-12T14:49:08.730Z,11.70
2018-04-12T14:51:37.024Z,11.20
2018-04-12T14:54:05.313Z,11.20
2018-04-12T14:56:33.607Z,10.20
2018-04-12T14:59:01.878Z,10.37
2018-04-12T15:01:30.158Z,9.50
2018-04-12T15:03:58.434Z,9.83
2018-04-12T15:06:26.716Z,10.50
2018-04-12T15:08:55.126Z,11.50
2018-04-12T15:11:23.430Z,10.87
2018-04-12T15:13:51.706Z,12.83
2018-04-12T15:16:19.997Z,10.57
2018-04-12T15:18:48.301Z,11.77
2018-04-12T15:21:16.566Z,10.53
2018-04-12T15:23:44.849Z,11.30
2018-04-12T15:26:13.138Z,11.33
2018-04-12T15:28:41.434Z,12.33
2018-04-12T15:31:09.735Z,11.73
2018-04-12T15:33:38.023Z,10.87
2018-04-12T15:36:06.314Z,9.80
2018-04-12T15:38:34.603Z,10.47
2018-04-12T15:41:02.881Z,9.87
2018-04-12T15:43:31.187Z,10.20
2018-04-12T15:45:59.524Z,11.73
2018-04-12T15:48:27.814Z,11.70
2018-04-12T15:50:56.698Z,11.13
2018-04-12T15:53:25.001Z,9.03
2018-04-12T15:55:53.279Z,10.60
2018-04-12T15:58:21.555Z,11.10
2018-04-12T16:00:50.102Z,10.97
2018-04-12T16:03:18.382Z,11.67
2018-04-12T16:05:46.667Z,12.03
2018-04-12T16:08:14.958Z,11.37
2018-04-12T16:10:43.238Z,11.47
2018-04-12T16:13:11.562Z,11.67
2018-04-12T16:15:39.842Z,12.27
2018-04-12T16:18:08.135Z,10.60
2018-04-12T16:20:36.419Z,11.57
2018-04-12T16:23:04.719Z,12.67
2018-04-12T16:25:33.008Z,10.57
2018-04-12T16:28:01.290Z,10.53
2018-04-12T16:30:29.583Z,10.63
2018-04-12T16:32:57.860Z,11.67
2018-04-12T16:35:26.153Z,11.60
2018-04-12T16:37:54.426Z,9.50
2018-04-12T16:40:22.702Z,9.80
2018-04-12T16:42:50.986Z,9.47
2018-04-12T16:45:19.254Z,7.63
2018-04-12T16:47:47.539Z,7.60
2018-04-12T16:50:15.814Z,7.07
2018-04-12T16:52:44.122Z,6.77
2018-04-12T16:55:12.420Z,6.53
2018-04-12T16:57:40.693Z,7.73
2018-04-12T17:00:08.995Z,7.47
2018-04-12T17:02:37.253Z,7.13
2018-04-12T17:05:05.550Z,6.20
2018-04-12T17:07:33.822Z,6.40
2018-04-12T17:10:02.359Z,5.30
2018-04-12T17:12:30.634Z,6.07
2018-04-12T17:14:58.898Z,6.60
2018-04-12T17:17:27.181Z,6.20
2018-04-12T17:19:55.458Z,5.83
2018-04-12T17:22:23.738Z,6.20
2018-04-12T17:24:52.006Z,5.60
2018-04-12T17:27:20.278Z,5.47
2018-04-12T17:29:48.565Z,6.20
2018-04-12T17:32:16.841Z,5.67
2018-04-12T17:34:45.119Z,5.67
2018-04-12T17:37:13.383Z,5.87
2018-04-12T17:39:41.670Z,5.67
2018-04-12T17:42:09.938Z,4.97
2018-04-12T17:44:38.215Z,5.70
2018-04-12T17:47:06.486Z,5.27
2018-04-12T17:49:34.755Z,5.57
2018-04-12T17:52:03.042Z,4.90
2018-04-12T17:54:31.319Z,5.87
2018-04-12T17:56:59.707Z,6.30
2018-04-12T17:59:27.975Z,5.90
2018-04-12T18:01:56.264Z,5.53
2018-04-12T18:04:24.526Z,5.67
2018-04-12T18:06:52.802Z,5.20
2018-04-12T18:09:21.075Z,6.10
2018-04-12T18:11:50.055Z,5.30
2018-04-12T18:14:18.485Z,5.40
2018-04-12T18:16:46.746Z,6.70
2018-04-12T18:19:15.045Z,7.07
2018-04-12T18:21:43.313Z,6.13
2018-04-12T18:24:11.588Z,4.77
2018-04-12T18:26:39.865Z,5.87
2018-04-12T18:29:08.142Z,5.90
2018-04-12T18:31:36.430Z,6.13
2018-04-12T18:34:04.706Z,5.53
2018-04-12T18:36:32.995Z,5.60
2018-04-12T18:39:01.258Z,5.60
2018-04-12T18:41:29.534Z,5.00
2018-04-12T18:43:57.822Z,4.20
2018-04-12T18:46:26.086Z,4.30
2018-04-12T18:48:54.404Z,4.47
2018-04-12T18:51:22.670Z,3.90
2018-04-12T18:53:50.951Z,3.97
2018-04-12T18:56:19.257Z,4.47
2018-04-12T18:58:47.521Z,4.03
2018-04-12T19:01:15.806Z,4.20
2018-04-12T19:03:44.075Z,4.63
2018-04-12T19:06:12.359Z,3.57
2018-04-12T19:08:40.631Z,4.20
2018-04-12T19:11:08.909Z,4.00
2018-04-12T19:13:37.179Z,4.80
2018-04-12T19:16:05.454Z,4.23
2018-04-12T19:18:33.738Z,4.20
2018-04-12T19:21:02.010Z,5.10
2018-04-12T19:23:30.285Z,4.27
2018-04-12T19:25:58.577Z,4.63
2018-04-12T19:28:26.855Z,5.43
2018-04-12T19:30:55.119Z,4.37
2018-04-12T19:33:23.402Z,5.23
2018-04-12T19:35:51.672Z,5.40
2018-04-12T19:38:19.946Z,5.30
2018-04-12T19:40:48.235Z,4.80
2018-04-12T19:43:16.502Z,4.27
2018-04-12T19:45:44.774Z,4.67
2018-04-12T19:48:13.054Z,4.97
2018-04-12T19:50:41.374Z,5.20
2018-04-12T19:53:09.659Z,6.20
2018-04-12T19:55:37.925Z,6.17
2018-04-12T19:58:06.197Z,6.70
2018-04-12T20:00:34.498Z,6.70
2018-04-12T20:03:02.774Z,5.97
2018-04-12T20:05:31.050Z,5.90
2018-04-12T20:07:59.578Z,6.10
2018-04-12T20:10:27.846Z,4.90
2018-04-12T20:12:56.107Z,5.67
2018-04-12T20:15:24.382Z,5.30
2018-04-12T20:17:52.645Z,5.13
2018-04-12T20:20:20.934Z,5.43
2018-04-12T20:22:49.220Z,5.80
2018-04-12T20:25:17.462Z,6.97
2018-04-12T20:27:45.726Z,6.00
2018-04-12T20:30:14.022Z,6.33
2018-04-12T20:32:42.285Z,7.03
2018-04-12T20:35:10.558Z,6.90
2018-04-12T20:37:38.849Z,6.67
2018-04-12T20:40:07.122Z,5.70
2018-04-12T20:42:35.405Z,7.33
2018-04-12T20:45:03.680Z,6.80
2018-04-12T20:47:31.958Z,7.13
2018-04-12T20:50:00.226Z,6.73
2018-04-12T20:52:28.514Z,7.40
2018-04-12T20:54:56.788Z,7.07
2018-04-12T20:57:25.074Z,6.20
2018-04-12T20:59:53.349Z,5.70
2018-04-12T21:02:21.612Z,6.80
2018-04-12T21:04:49.891Z,6.70
2018-04-12T21:07:18.158Z,5.80
2018-04-12T21:09:46.441Z,6.50
2018-04-12T21:12:14.707Z,5.80
2018-04-12T21:14:42.986Z,6.60
2018-04-12T21:17:11.254Z,6.83
2018-04-12T21:19:39.538Z,7.13
2018-04-12T21:22:07.829Z,6.47
2018-04-12T21:24:36.095Z,5.73
2018-04-12T21:27:04.382Z,6.33
2018-04-12T21:29:32.656Z,6.53
2018-04-12T21:32:00.940Z,5.47
2018-04-12T21:34:29.202Z,4.90
2018-04-12T21:36:57.742Z,6.27
2018-04-12T21:39:26.010Z,7.47
2018-04-12T21:41:54.279Z,7.00
2018-04-12T21:44:22.555Z,6.37
2018-04-12T21:46:50.818Z,6.27
2018-04-12T21:49:19.121Z,6.83
2018-04-12T21:51:47.382Z,8.20
2018-04-12T21:54:15.768Z,6.60
2018-04-12T21:56:44.038Z,6.47
2018-04-12T21:59:12.320Z,6.93
2018-04-12T22:01:40.590Z,6.60
2018-04-12T22:04:08.875Z,6.43
2018-04-12T22:06:37.145Z,6.20
2018-04-12T22:09:06.134Z,6.07
2018-04-12T22:11:34.418Z,6.00
2018-04-12T22:14:02.690Z,8.17
2018-04-12T22:16:30.966Z,6.57
2018-04-12T22:18:59.234Z,6.87
2018-04-12T22:21:27.764Z,6.67
2018-04-12T22:23:56.049Z,7.33
2018-04-12T22:26:24.327Z,7.50
2018-04-12T22:28:52.598Z,6.30
2018-04-12T22:31:20.874Z,6.73
2018-04-12T22:33:49.149Z,7.10
2018-04-12T22:36:17.402Z,6.60
2018-04-12T22:38:45.691Z,7.57
2018-04-12T22:41:13.979Z,6.80
2018-04-12T22:43:42.259Z,7.80
2018-04-12T22:46:10.534Z,6.97
2018-04-12T22:48:38.824Z,6.23
2018-04-12T22:51:07.082Z,6.63
2018-04-12T22:53:35.350Z,6.03
2018-04-12T22:56:03.624Z,5.67
2018-04-12T22:58:31.886Z,6.40
2018-04-12T23:01:00.158Z,6.20
2018-04-12T23:03:28.430Z,7.30
2018-04-12T23:05:56.702Z,6.53
2018-04-12T23:08:24.976Z,7.37
2018-04-12T23:10:53.263Z,7.97
2018-04-12T23:13:21.542Z,6.00
2018-04-12T23:15:49.810Z,6.30
2018-04-12T23:18:18.085Z,6.27
2018-04-12T23:20:46.359Z,6.10
2018-04-12T23:23:14.642Z,5.63
2018-04-12T23:25:42.906Z,5.90
2018-04-12T23:28:11.186Z,7.73
2018-04-12T23:30:39.454Z,5.83
2018-04-12T23:33:07.739Z,8.00
2018-04-12T23:35:36.022Z,7.87
2018-04-12T23:38:04.546Z,6.20
2018-04-12T23:40:32.821Z,5.73
2018-04-12T23:43:01.090Z,6.63
2018-04-12T23:45:29.373Z,8.80
2018-04-12T23:47:57.638Z,7.33
2018-04-12T23:50:25.918Z,5.87
2018-04-12T23:52:54.190Z,6.60
2018-04-12T23:55:22.471Z,6.70
2018-04-12T23:57:50.747Z,7.97
